LFPM 232200Z AUTO 08007KT CAVOK 25/10 Q1014

Les avions qui composent notre flotte

Avion Robin DR400-180

Idéal pour les voyages, équipé d'un Pilote Automatique

F-GGJV


F-GGJV Planche